sensor_id;sensor_type;location;lat;lon;timestamp;P1;durP1;ratioP1;P2;durP2;ratioP2
12290;SDS011;6208;48.956;9.076;2023-02-21T00:01:37;5.37;;;4.30;;
12290;SDS011;6208;48.956;9.076;2023-02-21T00:04:40;6.27;;;4.50;;
12290;SDS011;6208;48.956;9.076;2023-02-21T00:07:44;7.40;;;4.10;;
12290;SDS011;6208;48.956;9.076;2023-02-21T00:10:47;5.13;;;3.80;;
12290;SDS011;6208;48.956;9.076;2023-02-21T00:13:50;4.13;;;3.57;;
12290;SDS011;6208;48.956;9.076;2023-02-21T00:16:53;5.80;;;4.17;;
12290;SDS011;6208;48.956;9.076;2023-02-21T00:19:56;6.77;;;3.90;;
12290;SDS011;6208;48.956;9.076;2023-02-21T00:22:59;5.43;;;4.50;;
12290;SDS011;6208;48.956;9.076;2023-02-21T00:26:02;4.40;;;4.03;;
12290;SDS011;6208;48.956;9.076;2023-02-21T00:29:05;5.93;;;4.33;;
12290;SDS011;6208;48.956;9.076;2023-02-21T00:32:09;5.47;;;4.50;;
12290;SDS011;6208;48.956;9.076;2023-02-21T00:35:12;8.03;;;4.13;;
12290;SDS011;6208;48.956;9.076;2023-02-21T00:38:15;5.33;;;4.50;;
12290;SDS011;6208;48.956;9.076;2023-02-21T00:41:20;7.47;;;4.53;;
12290;SDS011;6208;48.956;9.076;2023-02-21T00:44:23;7.07;;;4.20;;
12290;SDS011;6208;48.956;9.076;2023-02-21T00:47:26;4.87;;;4.27;;
12290;SDS011;6208;48.956;9.076;2023-02-21T00:50:29;4.63;;;4.20;;
12290;SDS011;6208;48.956;9.076;2023-02-21T00:53:32;4.87;;;4.37;;
12290;SDS011;6208;48.956;9.076;2023-02-21T00:56:34;5.20;;;4.50;;
12290;SDS011;6208;48.956;9.076;2023-02-21T00:59:37;5.23;;;4.50;;
12290;SDS011;6208;48.956;9.076;2023-02-21T01:02:40;5.00;;;4.40;;
12290;SDS011;6208;48.956;9.076;2023-02-21T01:05:43;6.23;;;4.30;;
12290;SDS011;6208;48.956;9.076;2023-02-21T01:08:46;5.77;;;4.33;;
12290;SDS011;6208;48.956;9.076;2023-02-21T01:11:49;6.10;;;4.50;;
12290;SDS011;6208;48.956;9.076;2023-02-21T01:14:52;5.13;;;4.07;;
12290;SDS011;6208;48.956;9.076;2023-02-21T01:17:55;5.63;;;4.33;;
12290;SDS011;6208;48.956;9.076;2023-02-21T01:20:58;5.40;;;4.77;;
12290;SDS011;6208;48.956;9.076;2023-02-21T01:24:01;4.60;;;4.17;;
12290;SDS011;6208;48.956;9.076;2023-02-21T01:27:06;10.20;;;4.93;;
12290;SDS011;6208;48.956;9.076;2023-02-21T01:30:09;5.50;;;4.83;;
12290;SDS011;6208;48.956;9.076;2023-02-21T01:33:12;7.67;;;5.30;;
12290;SDS011;6208;48.956;9.076;2023-02-21T01:36:15;6.93;;;5.90;;
12290;SDS011;6208;48.956;9.076;2023-02-21T01:39:18;6.33;;;5.73;;
12290;SDS011;6208;48.956;9.076;2023-02-21T01:42:21;9.23;;;5.50;;
12290;SDS011;6208;48.956;9.076;2023-02-21T01:48:53;6.17;;;5.37;;
12290;SDS011;6208;48.956;9.076;2023-02-21T01:55:38;5.33;;;4.50;;
12290;SDS011;6208;48.956;9.076;2023-02-21T01:58:43;7.07;;;4.87;;
12290;SDS011;6208;48.956;9.076;2023-02-21T02:01:58;7.97;;;4.90;;
12290;SDS011;6208;48.956;9.076;2023-02-21T02:05:09;10.17;;;4.70;;
12290;SDS011;6208;48.956;9.076;2023-02-21T02:08:13;8.80;;;4.93;;
12290;SDS011;6208;48.956;9.076;2023-02-21T02:26:50;7.00;;;5.80;;
12290;SDS011;6208;48.956;9.076;2023-02-21T02:36:38;6.83;;;5.17;;
12290;SDS011;6208;48.956;9.076;2023-02-21T02:42:40;7.27;;;5.07;;
12290;SDS011;6208;48.956;9.076;2023-02-21T02:46:01;8.40;;;5.53;;
12290;SDS011;6208;48.956;9.076;2023-02-21T02:48:57;6.37;;;4.63;;
12290;SDS011;6208;48.956;9.076;2023-02-21T02:51:50;7.17;;;5.33;;
12290;SDS011;6208;48.956;9.076;2023-02-21T02:54:36;7.63;;;5.00;;
12290;SDS011;6208;48.956;9.076;2023-02-21T02:57:20;6.13;;;5.40;;
12290;SDS011;6208;48.956;9.076;2023-02-21T03:00:05;6.43;;;5.50;;
12290;SDS011;6208;48.956;9.076;2023-02-21T03:03:07;6.90;;;5.07;;
12290;SDS011;6208;48.956;9.076;2023-02-21T03:09:16;7.63;;;5.73;;
12290;SDS011;6208;48.956;9.076;2023-02-21T03:18:38;8.63;;;5.30;;
12290;SDS011;6208;48.956;9.076;2023-02-21T03:21:39;7.17;;;5.50;;
12290;SDS011;6208;48.956;9.076;2023-02-21T03:24:27;5.77;;;5.17;;
12290;SDS011;6208;48.956;9.076;2023-02-21T03:27:13;6.27;;;4.77;;
12290;SDS011;6208;48.956;9.076;2023-02-21T03:30:01;8.67;;;5.43;;
12290;SDS011;6208;48.956;9.076;2023-02-21T03:32:48;6.73;;;5.43;;
12290;SDS011;6208;48.956;9.076;2023-02-21T03:35:35;7.43;;;5.20;;
12290;SDS011;6208;48.956;9.076;2023-02-21T03:38:19;11.63;;;6.17;;
12290;SDS011;6208;48.956;9.076;2023-02-21T03:41:04;10.30;;;6.20;;
12290;SDS011;6208;48.956;9.076;2023-02-21T03:43:50;8.27;;;5.60;;
12290;SDS011;6208;48.956;9.076;2023-02-21T03:46:35;10.57;;;6.13;;
12290;SDS011;6208;48.956;9.076;2023-02-21T03:49:18;7.10;;;5.50;;
12290;SDS011;6208;48.956;9.076;2023-02-21T03:52:03;11.43;;;5.50;;
12290;SDS011;6208;48.956;9.076;2023-02-21T03:54:47;6.87;;;5.47;;
12290;SDS011;6208;48.956;9.076;2023-02-21T03:57:31;6.13;;;5.47;;
12290;SDS011;6208;48.956;9.076;2023-02-21T04:00:15;8.47;;;6.20;;
12290;SDS011;6208;48.956;9.076;2023-02-21T04:02:59;10.27;;;5.77;;
12290;SDS011;6208;48.956;9.076;2023-02-21T04:05:44;6.80;;;5.77;;
12290;SDS011;6208;48.956;9.076;2023-02-21T04:08:28;8.97;;;6.57;;
12290;SDS011;6208;48.956;9.076;2023-02-21T04:11:15;7.90;;;6.53;;
12290;SDS011;6208;48.956;9.076;2023-02-21T04:14:01;6.73;;;5.50;;
12290;SDS011;6208;48.956;9.076;2023-02-21T04:16:46;8.90;;;5.80;;
12290;SDS011;6208;48.956;9.076;2023-02-21T04:19:31;7.70;;;5.80;;
12290;SDS011;6208;48.956;9.076;2023-02-21T04:22:15;8.13;;;6.00;;
12290;SDS011;6208;48.956;9.076;2023-02-21T04:25:00;6.97;;;5.67;;
12290;SDS011;6208;48.956;9.076;2023-02-21T04:27:44;8.17;;;5.80;;
12290;SDS011;6208;48.956;9.076;2023-02-21T04:30:28;9.60;;;5.97;;
12290;SDS011;6208;48.956;9.076;2023-02-21T04:33:12;7.77;;;6.37;;
12290;SDS011;6208;48.956;9.076;2023-02-21T04:35:56;8.77;;;5.97;;
12290;SDS011;6208;48.956;9.076;2023-02-21T04:38:40;7.00;;;5.80;;
12290;SDS011;6208;48.956;9.076;2023-02-21T04:41:24;8.07;;;6.17;;
12290;SDS011;6208;48.956;9.076;2023-02-21T04:44:08;7.90;;;6.20;;
12290;SDS011;6208;48.956;9.076;2023-02-21T04:46:52;6.80;;;6.10;;
12290;SDS011;6208;48.956;9.076;2023-02-21T04:49:36;9.53;;;6.30;;
12290;SDS011;6208;48.956;9.076;2023-02-21T04:52:21;6.37;;;5.63;;
12290;SDS011;6208;48.956;9.076;2023-02-21T04:55:05;8.50;;;5.80;;
12290;SDS011;6208;48.956;9.076;2023-02-21T04:57:50;6.37;;;5.60;;
12290;SDS011;6208;48.956;9.076;2023-02-21T05:00:34;8.07;;;5.70;;
12290;SDS011;6208;48.956;9.076;2023-02-21T05:03:18;8.70;;;5.63;;
12290;SDS011;6208;48.956;9.076;2023-02-21T05:06:03;7.60;;;5.07;;
12290;SDS011;6208;48.956;9.076;2023-02-21T05:08:47;5.80;;;5.10;;
12290;SDS011;6208;48.956;9.076;2023-02-21T05:11:33;7.90;;;5.77;;
12290;SDS011;6208;48.956;9.076;2023-02-21T05:14:17;7.60;;;5.77;;
12290;SDS011;6208;48.956;9.076;2023-02-21T05:17:01;6.87;;;6.10;;
12290;SDS011;6208;48.956;9.076;2023-02-21T05:19:45;7.07;;;5.57;;
12290;SDS011;6208;48.956;9.076;2023-02-21T05:22:30;7.07;;;5.47;;
12290;SDS011;6208;48.956;9.076;2023-02-21T05:25:18;9.33;;;5.97;;
12290;SDS011;6208;48.956;9.076;2023-02-21T05:28:04;5.73;;;4.83;;
12290;SDS011;6208;48.956;9.076;2023-02-21T05:30:49;6.03;;;4.40;;
12290;SDS011;6208;48.956;9.076;2023-02-21T05:33:33;5.73;;;4.03;;
12290;SDS011;6208;48.956;9.076;2023-02-21T05:36:17;5.40;;;3.63;;
12290;SDS011;6208;48.956;9.076;2023-02-21T05:39:02;6.77;;;3.93;;
12290;SDS011;6208;48.956;9.076;2023-02-21T05:41:48;3.60;;;3.30;;
12290;SDS011;6208;48.956;9.076;2023-02-21T05:44:33;5.07;;;3.30;;
12290;SDS011;6208;48.956;9.076;2023-02-21T05:47:17;3.67;;;3.37;;
12290;SDS011;6208;48.956;9.076;2023-02-21T05:50:02;3.90;;;3.60;;
12290;SDS011;6208;48.956;9.076;2023-02-21T05:52:47;6.23;;;4.17;;
12290;SDS011;6208;48.956;9.076;2023-02-21T05:55:31;3.93;;;3.63;;
12290;SDS011;6208;48.956;9.076;2023-02-21T05:58:15;4.23;;;3.83;;
12290;SDS011;6208;48.956;9.076;2023-02-21T06:00:59;4.63;;;4.20;;
12290;SDS011;6208;48.956;9.076;2023-02-21T06:03:43;4.20;;;3.70;;
12290;SDS011;6208;48.956;9.076;2023-02-21T06:06:27;4.40;;;3.97;;
12290;SDS011;6208;48.956;9.076;2023-02-21T06:09:11;4.73;;;4.23;;
12290;SDS011;6208;48.956;9.076;2023-02-21T06:11:55;10.90;;;4.33;;
12290;SDS011;6208;48.956;9.076;2023-02-21T06:14:40;8.90;;;6.00;;
12290;SDS011;6208;48.956;9.076;2023-02-21T06:17:24;7.47;;;5.53;;
12290;SDS011;6208;48.956;9.076;2023-02-21T06:20:09;6.67;;;5.90;;
12290;SDS011;6208;48.956;9.076;2023-02-21T06:22:57;7.83;;;6.20;;
12290;SDS011;6208;48.956;9.076;2023-02-21T06:25:42;11.57;;;5.77;;
12290;SDS011;6208;48.956;9.076;2023-02-21T06:28:26;7.17;;;6.17;;
12290;SDS011;6208;48.956;9.076;2023-02-21T06:31:15;10.13;;;6.80;;
12290;SDS011;6208;48.956;9.076;2023-02-21T06:33:59;7.27;;;6.10;;
12290;SDS011;6208;48.956;9.076;2023-02-21T06:36:44;6.70;;;6.10;;
12290;SDS011;6208;48.956;9.076;2023-02-21T06:39:28;7.40;;;6.07;;
12290;SDS011;6208;48.956;9.076;2023-02-21T06:42:16;7.10;;;5.80;;
12290;SDS011;6208;48.956;9.076;2023-02-21T06:45:02;8.27;;;5.97;;
12290;SDS011;6208;48.956;9.076;2023-02-21T06:47:46;6.17;;;5.57;;
12290;SDS011;6208;48.956;9.076;2023-02-21T06:50:30;8.37;;;5.70;;
12290;SDS011;6208;48.956;9.076;2023-02-21T06:53:14;7.13;;;6.17;;
12290;SDS011;6208;48.956;9.076;2023-02-21T06:55:58;6.50;;;5.13;;
12290;SDS011;6208;48.956;9.076;2023-02-21T06:58:42;6.23;;;5.17;;
12290;SDS011;6208;48.956;9.076;2023-02-21T07:01:27;6.17;;;5.40;;
12290;SDS011;6208;48.956;9.076;2023-02-21T07:04:12;7.63;;;5.63;;
12290;SDS011;6208;48.956;9.076;2023-02-21T07:06:57;11.03;;;5.60;;
12290;SDS011;6208;48.956;9.076;2023-02-21T07:09:41;8.13;;;5.50;;
12290;SDS011;6208;48.956;9.076;2023-02-21T07:12:25;7.63;;;5.83;;
12290;SDS011;6208;48.956;9.076;2023-02-21T07:15:10;7.77;;;5.67;;
12290;SDS011;6208;48.956;9.076;2023-02-21T07:17:55;9.50;;;5.67;;
12290;SDS011;6208;48.956;9.076;2023-02-21T07:20:39;6.10;;;5.50;;
12290;SDS011;6208;48.956;9.076;2023-02-21T07:23:23;11.30;;;5.50;;
12290;SDS011;6208;48.956;9.076;2023-02-21T07:26:07;8.97;;;5.53;;
12290;SDS011;6208;48.956;9.076;2023-02-21T07:28:51;7.23;;;5.30;;
12290;SDS011;6208;48.956;9.076;2023-02-21T07:31:35;8.57;;;5.70;;
12290;SDS011;6208;48.956;9.076;2023-02-21T07:34:19;5.90;;;5.07;;
12290;SDS011;6208;48.956;9.076;2023-02-21T07:37:05;11.37;;;5.77;;
12290;SDS011;6208;48.956;9.076;2023-02-21T07:39:50;8.20;;;6.23;;
12290;SDS011;6208;48.956;9.076;2023-02-21T07:42:34;7.50;;;6.17;;
12290;SDS011;6208;48.956;9.076;2023-02-21T07:45:18;6.60;;;5.90;;
12290;SDS011;6208;48.956;9.076;2023-02-21T07:48:02;7.50;;;5.70;;
12290;SDS011;6208;48.956;9.076;2023-02-21T07:50:46;7.13;;;5.60;;
12290;SDS011;6208;48.956;9.076;2023-02-21T07:53:31;6.63;;;5.40;;
12290;SDS011;6208;48.956;9.076;2023-02-21T07:56:15;8.67;;;5.50;;
12290;SDS011;6208;48.956;9.076;2023-02-21T07:58:59;7.97;;;5.80;;
12290;SDS011;6208;48.956;9.076;2023-02-21T08:01:43;5.27;;;4.77;;
12290;SDS011;6208;48.956;9.076;2023-02-21T08:04:27;10.53;;;5.70;;
12290;SDS011;6208;48.956;9.076;2023-02-21T08:07:11;9.73;;;5.80;;
12290;SDS011;6208;48.956;9.076;2023-02-21T08:09:55;8.03;;;5.80;;
12290;SDS011;6208;48.956;9.076;2023-02-21T08:12:39;11.10;;;7.07;;
12290;SDS011;6208;48.956;9.076;2023-02-21T08:15:23;8.10;;;5.83;;
12290;SDS011;6208;48.956;9.076;2023-02-21T08:18:15;7.90;;;6.20;;
12290;SDS011;6208;48.956;9.076;2023-02-21T08:21:07;9.88;;;6.05;;
12290;SDS011;6208;48.956;9.076;2023-02-21T08:23:53;10.77;;;6.15;;
12290;SDS011;6208;48.956;9.076;2023-02-21T08:26:38;8.55;;;5.80;;
12290;SDS011;6208;48.956;9.076;2023-02-21T08:29:24;8.73;;;5.22;;
12290;SDS011;6208;48.956;9.076;2023-02-21T08:32:08;6.90;;;5.07;;
12290;SDS011;6208;48.956;9.076;2023-02-21T08:34:52;8.38;;;5.15;;
12290;SDS011;6208;48.956;9.076;2023-02-21T08:37:36;8.48;;;5.20;;
12290;SDS011;6208;48.956;9.076;2023-02-21T08:40:28;13.15;;;5.65;;
12290;SDS011;6208;48.956;9.076;2023-02-21T08:43:13;6.57;;;5.35;;
12290;SDS011;6208;48.956;9.076;2023-02-21T08:45:57;9.98;;;5.95;;
12290;SDS011;6208;48.956;9.076;2023-02-21T08:48:42;9.02;;;5.68;;
12290;SDS011;6208;48.956;9.076;2023-02-21T08:51:27;8.90;;;6.20;;
12290;SDS011;6208;48.956;9.076;2023-02-21T08:54:12;7.75;;;5.75;;
12290;SDS011;6208;48.956;9.076;2023-02-21T08:56:56;8.80;;;6.05;;
12290;SDS011;6208;48.956;9.076;2023-02-21T08:59:41;8.43;;;6.15;;
12290;SDS011;6208;48.956;9.076;2023-02-21T09:02:27;12.23;;;6.40;;
12290;SDS011;6208;48.956;9.076;2023-02-21T09:05:14;7.10;;;6.07;;
12290;SDS011;6208;48.956;9.076;2023-02-21T09:08:03;12.35;;;6.35;;
12290;SDS011;6208;48.956;9.076;2023-02-21T09:10:47;11.07;;;6.40;;
12290;SDS011;6208;48.956;9.076;2023-02-21T09:13:32;8.68;;;6.60;;
12290;SDS011;6208;48.956;9.076;2023-02-21T09:16:16;7.00;;;5.97;;
12290;SDS011;6208;48.956;9.076;2023-02-21T09:19:00;8.25;;;6.65;;
12290;SDS011;6208;48.956;9.076;2023-02-21T09:21:45;8.15;;;6.35;;
12290;SDS011;6208;48.956;9.076;2023-02-21T09:24:30;8.63;;;6.63;;
12290;SDS011;6208;48.956;9.076;2023-02-21T09:27:14;8.48;;;5.93;;
12290;SDS011;6208;48.956;9.076;2023-02-21T09:30:00;6.97;;;5.97;;
12290;SDS011;6208;48.956;9.076;2023-02-21T09:32:50;8.80;;;5.78;;
12290;SDS011;6208;48.956;9.076;2023-02-21T09:35:35;10.48;;;5.60;;
12290;SDS011;6208;48.956;9.076;2023-02-21T09:38:19;8.13;;;5.80;;
12290;SDS011;6208;48.956;9.076;2023-02-21T09:41:04;8.60;;;6.05;;
12290;SDS011;6208;48.956;9.076;2023-02-21T09:43:50;6.18;;;5.57;;
12290;SDS011;6208;48.956;9.076;2023-02-21T09:46:40;8.95;;;6.20;;
12290;SDS011;6208;48.956;9.076;2023-02-21T09:49:35;9.35;;;5.90;;
12290;SDS011;6208;48.956;9.076;2023-02-21T09:52:36;8.90;;;6.13;;
12290;SDS011;6208;48.956;9.076;2023-02-21T09:55:29;7.20;;;5.47;;
12290;SDS011;6208;48.956;9.076;2023-02-21T09:58:18;5.60;;;4.60;;
12290;SDS011;6208;48.956;9.076;2023-02-21T10:01:06;6.47;;;4.80;;
12290;SDS011;6208;48.956;9.076;2023-02-21T10:07:03;6.35;;;4.68;;
12290;SDS011;6208;48.956;9.076;2023-02-21T10:10:08;6.47;;;4.82;;
12290;SDS011;6208;48.956;9.076;2023-02-21T10:16:20;6.32;;;5.72;;
12290;SDS011;6208;48.956;9.076;2023-02-21T10:22:11;7.63;;;5.45;;
12290;SDS011;6208;48.956;9.076;2023-02-21T10:25:24;7.63;;;5.97;;
12290;SDS011;6208;48.956;9.076;2023-02-21T10:28:21;8.38;;;5.38;;
12290;SDS011;6208;48.956;9.076;2023-02-21T10:31:08;5.80;;;5.10;;
12290;SDS011;6208;48.956;9.076;2023-02-21T10:33:57;12.10;;;5.45;;
12290;SDS011;6208;48.956;9.076;2023-02-21T10:36:43;6.05;;;5.45;;
12290;SDS011;6208;48.956;9.076;2023-02-21T10:39:33;7.15;;;5.00;;
12290;SDS011;6208;48.956;9.076;2023-02-21T10:42:33;8.35;;;5.43;;
12290;SDS011;6208;48.956;9.076;2023-02-21T10:45:29;5.80;;;5.30;;
12290;SDS011;6208;48.956;9.076;2023-02-21T10:48:18;5.50;;;5.00;;
12290;SDS011;6208;48.956;9.076;2023-02-21T10:51:05;6.68;;;4.93;;
12290;SDS011;6208;48.956;9.076;2023-02-21T10:53:52;7.88;;;4.95;;
12290;SDS011;6208;48.956;9.076;2023-02-21T10:56:41;4.60;;;4.10;;
12290;SDS011;6208;48.956;9.076;2023-02-21T10:59:27;6.50;;;5.07;;
12290;SDS011;6208;48.956;9.076;2023-02-21T11:05:15;6.32;;;3.90;;
12290;SDS011;6208;48.956;9.076;2023-02-21T11:08:09;8.88;;;5.15;;
12290;SDS011;6208;48.956;9.076;2023-02-21T11:10:54;8.55;;;5.38;;
12290;SDS011;6208;48.956;9.076;2023-02-21T11:13:39;7.45;;;4.70;;
12290;SDS011;6208;48.956;9.076;2023-02-21T11:16:23;4.47;;;4.13;;
12290;SDS011;6208;48.956;9.076;2023-02-21T11:19:09;5.20;;;4.25;;
12290;SDS011;6208;48.956;9.076;2023-02-21T11:21:56;5.07;;;4.18;;
12290;SDS011;6208;48.956;9.076;2023-02-21T11:24:45;4.45;;;4.05;;
12290;SDS011;6208;48.956;9.076;2023-02-21T11:27:56;6.05;;;4.05;;
12290;SDS011;6208;48.956;9.076;2023-02-21T11:30:49;6.03;;;3.97;;
12290;SDS011;6208;48.956;9.076;2023-02-21T11:33:38;4.05;;;3.63;;
12290;SDS011;6208;48.956;9.076;2023-02-21T11:36:35;3.90;;;3.55;;
12290;SDS011;6208;48.956;9.076;2023-02-21T11:39:22;4.53;;;4.20;;
12290;SDS011;6208;48.956;9.076;2023-02-21T11:42:23;5.22;;;3.67;;
12290;SDS011;6208;48.956;9.076;2023-02-21T11:45:13;5.40;;;3.80;;
12290;SDS011;6208;48.956;9.076;2023-02-21T11:48:00;4.88;;;3.65;;
12290;SDS011;6208;48.956;9.076;2023-02-21T11:50:48;6.55;;;3.78;;
12290;SDS011;6208;48.956;9.076;2023-02-21T11:53:38;5.18;;;3.50;;
12290;SDS011;6208;48.956;9.076;2023-02-21T11:56:38;8.02;;;3.60;;
12290;SDS011;6208;48.956;9.076;2023-02-21T12:02:52;6.07;;;3.67;;
12290;SDS011;6208;48.956;9.076;2023-02-21T12:08:52;6.45;;;3.30;;
12290;SDS011;6208;48.956;9.076;2023-02-21T12:14:46;3.42;;;2.85;;
12290;SDS011;6208;48.956;9.076;2023-02-21T12:32:53;3.95;;;3.38;;
12290;SDS011;6208;48.956;9.076;2023-02-21T12:39:04;4.50;;;4.10;;
12290;SDS011;6208;48.956;9.076;2023-02-21T12:51:13;3.80;;;3.20;;
12290;SDS011;6208;48.956;9.076;2023-02-21T12:54:04;4.32;;;2.90;;
12290;SDS011;6208;48.956;9.076;2023-02-21T12:56:58;4.65;;;3.10;;
12290;SDS011;6208;48.956;9.076;2023-02-21T13:06:20;4.55;;;3.70;;
12290;SDS011;6208;48.956;9.076;2023-02-21T13:09:16;6.07;;;3.80;;
12290;SDS011;6208;48.956;9.076;2023-02-21T13:15:43;4.50;;;3.28;;
12290;SDS011;6208;48.956;9.076;2023-02-21T13:18:43;5.45;;;3.97;;
12290;SDS011;6208;48.956;9.076;2023-02-21T13:30:21;6.45;;;4.25;;
12290;SDS011;6208;48.956;9.076;2023-02-21T13:39:26;14.95;;;8.05;;
12290;SDS011;6208;48.956;9.076;2023-02-21T13:42:16;3.80;;;3.40;;
12290;SDS011;6208;48.956;9.076;2023-02-21T13:51:00;11.18;;;6.85;;
12290;SDS011;6208;48.956;9.076;2023-02-21T13:57:27;6.13;;;4.22;;
12290;SDS011;6208;48.956;9.076;2023-02-21T14:00:44;11.02;;;5.88;;
12290;SDS011;6208;48.956;9.076;2023-02-21T14:08:54;5.50;;;3.50;;
12290;SDS011;6208;48.956;9.076;2023-02-21T14:11:46;5.90;;;4.32;;
12290;SDS011;6208;48.956;9.076;2023-02-21T14:14:36;7.55;;;4.10;;
12290;SDS011;6208;48.956;9.076;2023-02-21T14:17:26;4.63;;;4.03;;
12290;SDS011;6208;48.956;9.076;2023-02-21T14:20:15;6.88;;;5.47;;
12290;SDS011;6208;48.956;9.076;2023-02-21T14:23:02;4.82;;;3.95;;
12290;SDS011;6208;48.956;9.076;2023-02-21T14:25:58;5.65;;;3.25;;
12290;SDS011;6208;48.956;9.076;2023-02-21T14:31:47;3.78;;;3.47;;
12290;SDS011;6208;48.956;9.076;2023-02-21T14:37:43;5.00;;;3.58;;
12290;SDS011;6208;48.956;9.076;2023-02-21T14:43:40;4.43;;;3.50;;
12290;SDS011;6208;48.956;9.076;2023-02-21T14:46:52;3.30;;;3.00;;
12290;SDS011;6208;48.956;9.076;2023-02-21T14:50:06;3.88;;;2.97;;
12290;SDS011;6208;48.956;9.076;2023-02-21T14:53:08;5.20;;;3.42;;
12290;SDS011;6208;48.956;9.076;2023-02-21T15:02:06;5.13;;;3.70;;
12290;SDS011;6208;48.956;9.076;2023-02-21T15:05:15;3.83;;;3.53;;
12290;SDS011;6208;48.956;9.076;2023-02-21T15:08:11;3.75;;;3.25;;
12290;SDS011;6208;48.956;9.076;2023-02-21T15:11:13;4.07;;;3.33;;
12290;SDS011;6208;48.956;9.076;2023-02-21T15:17:12;3.88;;;3.58;;
12290;SDS011;6208;48.956;9.076;2023-02-21T15:20:05;4.70;;;4.25;;
12290;SDS011;6208;48.956;9.076;2023-02-21T15:22:58;6.72;;;3.92;;
12290;SDS011;6208;48.956;9.076;2023-02-21T15:25:52;4.32;;;3.35;;
12290;SDS011;6208;48.956;9.076;2023-02-21T15:28:38;3.42;;;3.08;;
12290;SDS011;6208;48.956;9.076;2023-02-21T15:31:22;4.80;;;3.28;;
12290;SDS011;6208;48.956;9.076;2023-02-21T15:34:15;3.75;;;3.38;;
12290;SDS011;6208;48.956;9.076;2023-02-21T15:40:02;3.60;;;2.70;;
12290;SDS011;6208;48.956;9.076;2023-02-21T15:42:58;4.10;;;3.20;;
12290;SDS011;6208;48.956;9.076;2023-02-21T15:45:45;4.47;;;3.40;;
12290;SDS011;6208;48.956;9.076;2023-02-21T15:48:31;3.05;;;2.80;;
12290;SDS011;6208;48.956;9.076;2023-02-21T15:51:16;5.20;;;3.00;;
12290;SDS011;6208;48.956;9.076;2023-02-21T15:54:08;4.05;;;2.97;;
12290;SDS011;6208;48.956;9.076;2023-02-21T15:57:19;5.00;;;2.92;;
12290;SDS011;6208;48.956;9.076;2023-02-21T16:00:40;6.50;;;3.20;;
12290;SDS011;6208;48.956;9.076;2023-02-21T16:06:26;5.22;;;2.92;;
12290;SDS011;6208;48.956;9.076;2023-02-21T16:09:25;4.70;;;2.90;;
12290;SDS011;6208;48.956;9.076;2023-02-21T16:14:57;5.32;;;3.13;;
12290;SDS011;6208;48.956;9.076;2023-02-21T16:17:51;3.60;;;3.30;;
12290;SDS011;6208;48.956;9.076;2023-02-21T16:20:38;3.03;;;2.83;;
12290;SDS011;6208;48.956;9.076;2023-02-21T16:28:59;3.83;;;3.13;;
12290;SDS011;6208;48.956;9.076;2023-02-21T16:31:45;3.25;;;2.70;;
12290;SDS011;6208;48.956;9.076;2023-02-21T16:34:32;3.28;;;2.88;;
12290;SDS011;6208;48.956;9.076;2023-02-21T16:37:18;4.38;;;3.25;;
12290;SDS011;6208;48.956;9.076;2023-02-21T16:40:10;4.40;;;2.78;;
12290;SDS011;6208;48.956;9.076;2023-02-21T16:42:56;4.50;;;2.85;;
12290;SDS011;6208;48.956;9.076;2023-02-21T16:45:41;4.25;;;2.72;;
12290;SDS011;6208;48.956;9.076;2023-02-21T16:48:27;3.13;;;2.70;;
12290;SDS011;6208;48.956;9.076;2023-02-21T16:51:15;2.85;;;2.65;;
12290;SDS011;6208;48.956;9.076;2023-02-21T16:54:01;3.58;;;2.53;;
12290;SDS011;6208;48.956;9.076;2023-02-21T16:56:46;3.83;;;2.60;;
12290;SDS011;6208;48.956;9.076;2023-02-21T16:59:33;3.85;;;3.00;;
12290;SDS011;6208;48.956;9.076;2023-02-21T17:02:18;6.25;;;5.03;;
12290;SDS011;6208;48.956;9.076;2023-02-21T17:05:05;6.20;;;4.28;;
12290;SDS011;6208;48.956;9.076;2023-02-21T17:07:49;5.72;;;3.72;;
12290;SDS011;6208;48.956;9.076;2023-02-21T17:10:37;3.63;;;3.10;;
12290;SDS011;6208;48.956;9.076;2023-02-21T17:13:22;3.67;;;3.38;;
12290;SDS011;6208;48.956;9.076;2023-02-21T17:16:07;3.67;;;3.10;;
12290;SDS011;6208;48.956;9.076;2023-02-21T17:18:52;4.13;;;3.65;;
12290;SDS011;6208;48.956;9.076;2023-02-21T17:21:36;3.70;;;3.40;;
12290;SDS011;6208;48.956;9.076;2023-02-21T17:24:21;6.60;;;3.42;;
12290;SDS011;6208;48.956;9.076;2023-02-21T17:27:05;5.30;;;3.42;;
12290;SDS011;6208;48.956;9.076;2023-02-21T17:29:49;3.92;;;3.55;;
12290;SDS011;6208;48.956;9.076;2023-02-21T17:32:33;8.80;;;3.65;;
12290;SDS011;6208;48.956;9.076;2023-02-21T17:35:18;5.20;;;4.03;;
12290;SDS011;6208;48.956;9.076;2023-02-21T17:38:03;5.30;;;3.60;;
12290;SDS011;6208;48.956;9.076;2023-02-21T17:40:48;7.93;;;5.25;;
12290;SDS011;6208;48.956;9.076;2023-02-21T17:43:32;5.60;;;5.10;;
12290;SDS011;6208;48.956;9.076;2023-02-21T17:46:17;12.25;;;5.35;;
12290;SDS011;6208;48.956;9.076;2023-02-21T17:49:02;7.95;;;5.20;;
12290;SDS011;6208;48.956;9.076;2023-02-21T17:51:46;8.38;;;5.40;;
12290;SDS011;6208;48.956;9.076;2023-02-21T17:54:31;7.47;;;6.20;;
12290;SDS011;6208;48.956;9.076;2023-02-21T17:57:15;7.28;;;4.85;;
12290;SDS011;6208;48.956;9.076;2023-02-21T18:00:00;6.82;;;4.95;;
12290;SDS011;6208;48.956;9.076;2023-02-21T18:02:44;6.28;;;5.32;;
12290;SDS011;6208;48.956;9.076;2023-02-21T18:05:29;7.40;;;5.03;;
12290;SDS011;6208;48.956;9.076;2023-02-21T18:08:17;7.20;;;5.07;;
12290;SDS011;6208;48.956;9.076;2023-02-21T18:11:02;6.32;;;4.78;;
12290;SDS011;6208;48.956;9.076;2023-02-21T18:13:46;10.15;;;7.00;;
12290;SDS011;6208;48.956;9.076;2023-02-21T18:16:30;8.57;;;5.80;;
12290;SDS011;6208;48.956;9.076;2023-02-21T18:19:15;6.15;;;5.00;;
12290;SDS011;6208;48.956;9.076;2023-02-21T18:21:59;9.55;;;6.28;;
12290;SDS011;6208;48.956;9.076;2023-02-21T18:24:48;8.00;;;6.43;;
12290;SDS011;6208;48.956;9.076;2023-02-21T18:27:32;12.13;;;7.03;;
12290;SDS011;6208;48.956;9.076;2023-02-21T18:30:17;11.02;;;9.27;;
12290;SDS011;6208;48.956;9.076;2023-02-21T18:33:02;13.88;;;9.40;;
12290;SDS011;6208;48.956;9.076;2023-02-21T18:35:47;14.70;;;9.27;;
12290;SDS011;6208;48.956;9.076;2023-02-21T18:38:31;13.00;;;7.93;;
12290;SDS011;6208;48.956;9.076;2023-02-21T18:41:16;14.00;;;9.30;;
12290;SDS011;6208;48.956;9.076;2023-02-21T18:44:02;13.93;;;8.80;;
12290;SDS011;6208;48.956;9.076;2023-02-21T18:46:51;12.00;;;8.70;;
12290;SDS011;6208;48.956;9.076;2023-02-21T18:49:37;13.48;;;7.70;;
12290;SDS011;6208;48.956;9.076;2023-02-21T18:52:21;10.88;;;8.02;;
12290;SDS011;6208;48.956;9.076;2023-02-21T18:55:06;9.10;;;7.80;;
12290;SDS011;6208;48.956;9.076;2023-02-21T18:57:50;12.48;;;7.43;;
12290;SDS011;6208;48.956;9.076;2023-02-21T19:00:35;14.13;;;8.57;;
12290;SDS011;6208;48.956;9.076;2023-02-21T19:03:21;12.25;;;9.32;;
12290;SDS011;6208;48.956;9.076;2023-02-21T19:06:06;15.27;;;10.10;;
12290;SDS011;6208;48.956;9.076;2023-02-21T19:08:53;13.63;;;10.63;;
12290;SDS011;6208;48.956;9.076;2023-02-21T19:11:38;25.25;;;16.73;;
12290;SDS011;6208;48.956;9.076;2023-02-21T19:14:22;20.45;;;12.30;;
12290;SDS011;6208;48.956;9.076;2023-02-21T19:17:06;17.00;;;11.25;;
12290;SDS011;6208;48.956;9.076;2023-02-21T19:19:51;20.25;;;12.48;;
12290;SDS011;6208;48.956;9.076;2023-02-21T19:22:36;25.63;;;14.00;;
12290;SDS011;6208;48.956;9.076;2023-02-21T19:25:21;21.45;;;14.45;;
12290;SDS011;6208;48.956;9.076;2023-02-21T19:28:09;31.63;;;17.52;;
12290;SDS011;6208;48.956;9.076;2023-02-21T19:30:53;32.20;;;20.23;;
12290;SDS011;6208;48.956;9.076;2023-02-21T19:33:38;26.08;;;16.35;;
12290;SDS011;6208;48.956;9.076;2023-02-21T19:36:23;27.00;;;15.02;;
12290;SDS011;6208;48.956;9.076;2023-02-21T19:39:07;25.58;;;15.65;;
12290;SDS011;6208;48.956;9.076;2023-02-21T19:41:53;25.95;;;17.85;;
12290;SDS011;6208;48.956;9.076;2023-02-21T19:44:37;26.02;;;15.38;;
12290;SDS011;6208;48.956;9.076;2023-02-21T19:47:21;18.52;;;12.20;;
12290;SDS011;6208;48.956;9.076;2023-02-21T19:50:05;13.25;;;8.82;;
12290;SDS011;6208;48.956;9.076;2023-02-21T19:52:50;8.45;;;7.20;;
12290;SDS011;6208;48.956;9.076;2023-02-21T19:55:35;10.30;;;7.53;;
12290;SDS011;6208;48.956;9.076;2023-02-21T19:58:19;10.35;;;6.40;;